sensor_id;sensor_type;location;lat;lon;timestamp;pressure;altitude;pressure_sealevel;temperature;humidity
76132;BME280;64877;50.994;13.650;2023-04-03T00:01:06;100673.88;;;3.67;63.28
76132;BME280;64877;50.994;13.650;2023-04-03T00:03:32;100675.69;;;3.66;63.50
76132;BME280;64877;50.994;13.650;2023-04-03T00:05:58;100686.66;;;3.57;62.38
76132;BME280;64877;50.994;13.650;2023-04-03T00:08:24;100679.66;;;3.53;63.02
76132;BME280;64877;50.994;13.650;2023-04-03T00:10:49;100688.72;;;3.49;63.35
76132;BME280;64877;50.994;13.650;2023-04-03T00:13:16;100687.84;;;3.48;63.30
76132;BME280;64877;50.994;13.650;2023-04-03T00:15:42;100680.06;;;3.41;63.41
76132;BME280;64877;50.994;13.650;2023-04-03T00:18:07;100685.50;;;3.37;62.69
76132;BME280;64877;50.994;13.650;2023-04-03T00:20:33;100685.41;;;3.41;62.67
76132;BME280;64877;50.994;13.650;2023-04-03T00:23:00;100695.31;;;3.37;62.43
76132;BME280;64877;50.994;13.650;2023-04-03T00:25:25;100693.50;;;3.37;62.55
76132;BME280;64877;50.994;13.650;2023-04-03T00:27:51;100698.03;;;3.35;62.52
76132;BME280;64877;50.994;13.650;2023-04-03T00:30:18;100699.19;;;3.27;61.92
76132;BME280;64877;50.994;13.650;2023-04-03T00:32:44;100694.09;;;3.19;62.59
76132;BME280;64877;50.994;13.650;2023-04-03T00:35:10;100701.25;;;3.17;62.14
76132;BME280;64877;50.994;13.650;2023-04-03T00:37:36;100702.13;;;3.18;62.50
76132;BME280;64877;50.994;13.650;2023-04-03T00:40:02;100688.09;;;3.11;62.83
76132;BME280;64877;50.994;13.650;2023-04-03T00:42:28;100699.84;;;3.05;62.07
76132;BME280;64877;50.994;13.650;2023-04-03T00:47:23;100701.19;;;2.91;63.14
76132;BME280;64877;50.994;13.650;2023-04-03T00:49:50;100702.84;;;2.95;63.20
76132;BME280;64877;50.994;13.650;2023-04-03T00:52:17;100704.66;;;2.93;62.37
76132;BME280;64877;50.994;13.650;2023-04-03T00:54:46;100701.09;;;2.94;63.11
76132;BME280;64877;50.994;13.650;2023-04-03T00:57:13;100695.75;;;2.94;62.48
76132;BME280;64877;50.994;13.650;2023-04-03T00:59:43;100705.63;;;2.90;63.05
76132;BME280;64877;50.994;13.650;2023-04-03T01:02:10;100695.91;;;2.89;62.97
76132;BME280;64877;50.994;13.650;2023-04-03T01:04:37;100701.50;;;2.78;63.14
76132;BME280;64877;50.994;13.650;2023-04-03T01:09:42;100708.78;;;2.73;63.32
76132;BME280;64877;50.994;13.650;2023-04-03T01:12:20;100704.34;;;2.74;63.22
76132;BME280;64877;50.994;13.650;2023-04-03T01:14:46;100706.09;;;2.73;62.83
76132;BME280;64877;50.994;13.650;2023-04-03T01:17:36;100712.38;;;2.72;63.27
76132;BME280;64877;50.994;13.650;2023-04-03T01:25:45;100721.38;;;2.68;63.18
76132;BME280;64877;50.994;13.650;2023-04-03T01:28:27;100720.72;;;2.60;63.35
76132;BME280;64877;50.994;13.650;2023-04-03T01:33:43;100724.03;;;2.68;62.75
76132;BME280;64877;50.994;13.650;2023-04-03T01:36:13;100726.81;;;2.65;61.99
76132;BME280;64877;50.994;13.650;2023-04-03T01:38:38;100733.09;;;2.63;62.46
76132;BME280;64877;50.994;13.650;2023-04-03T01:41:04;100733.13;;;2.61;62.37
76132;BME280;64877;50.994;13.650;2023-04-03T01:43:29;100728.78;;;2.57;62.45
76132;BME280;64877;50.994;13.650;2023-04-03T01:45:54;100739.56;;;2.54;62.60
76132;BME280;64877;50.994;13.650;2023-04-03T01:48:20;100744.97;;;2.51;62.79
76132;BME280;64877;50.994;13.650;2023-04-03T01:50:46;100745.91;;;2.48;62.49
76132;BME280;64877;50.994;13.650;2023-04-03T01:53:11;100746.59;;;2.56;62.45
76132;BME280;64877;50.994;13.650;2023-04-03T01:55:37;100751.28;;;2.47;62.04
76132;BME280;64877;50.994;13.650;2023-04-03T01:58:02;100749.66;;;2.41;61.92
76132;BME280;64877;50.994;13.650;2023-04-03T02:00:27;100751.63;;;2.35;62.35
76132;BME280;64877;50.994;13.650;2023-04-03T02:02:53;100747.94;;;2.39;62.26
76132;BME280;64877;50.994;13.650;2023-04-03T02:05:18;100758.75;;;2.34;62.40
76132;BME280;64877;50.994;13.650;2023-04-03T02:07:44;100754.59;;;2.24;62.05
76132;BME280;64877;50.994;13.650;2023-04-03T02:10:09;100761.59;;;2.26;61.95
76132;BME280;64877;50.994;13.650;2023-04-03T02:12:35;100752.91;;;2.18;62.04
76132;BME280;64877;50.994;13.650;2023-04-03T02:15:00;100763.84;;;2.09;62.74
76132;BME280;64877;50.994;13.650;2023-04-03T02:17:26;100774.50;;;2.09;62.43
76132;BME280;64877;50.994;13.650;2023-04-03T02:19:51;100762.81;;;2.13;62.98
76132;BME280;64877;50.994;13.650;2023-04-03T02:22:17;100763.84;;;2.07;62.58
76132;BME280;64877;50.994;13.650;2023-04-03T02:24:42;100770.00;;;2.11;62.54
76132;BME280;64877;50.994;13.650;2023-04-03T02:27:08;100770.31;;;1.97;62.50
76132;BME280;64877;50.994;13.650;2023-04-03T02:29:33;100772.06;;;1.98;63.28
76132;BME280;64877;50.994;13.650;2023-04-03T02:31:58;100776.72;;;1.90;62.87
76132;BME280;64877;50.994;13.650;2023-04-03T02:34:24;100774.97;;;1.89;62.95
76132;BME280;64877;50.994;13.650;2023-04-03T02:36:50;100768.84;;;1.86;63.24
76132;BME280;64877;50.994;13.650;2023-04-03T02:39:15;100782.38;;;1.76;63.80
76132;BME280;64877;50.994;13.650;2023-04-03T02:41:41;100779.84;;;1.70;63.20
76132;BME280;64877;50.994;13.650;2023-04-03T02:44:11;100781.53;;;1.74;62.82
76132;BME280;64877;50.994;13.650;2023-04-03T02:46:37;100780.66;;;1.74;62.72
76132;BME280;64877;50.994;13.650;2023-04-03T02:49:03;100791.53;;;1.63;63.12
76132;BME280;64877;50.994;13.650;2023-04-03T02:51:29;100787.19;;;1.61;63.51
76132;BME280;64877;50.994;13.650;2023-04-03T02:53:55;100794.31;;;1.59;63.36
76132;BME280;64877;50.994;13.650;2023-04-03T02:56:20;100797.72;;;1.65;63.61
76132;BME280;64877;50.994;13.650;2023-04-03T02:58:46;100796.03;;;1.61;63.14
76132;BME280;64877;50.994;13.650;2023-04-03T03:01:13;100801.50;;;1.55;63.68
76132;BME280;64877;50.994;13.650;2023-04-03T03:03:39;100799.88;;;1.48;64.25
76132;BME280;64877;50.994;13.650;2023-04-03T03:06:13;100800.97;;;1.38;64.48
76132;BME280;64877;50.994;13.650;2023-04-03T03:08:39;100797.34;;;1.42;64.13
76132;BME280;64877;50.994;13.650;2023-04-03T03:11:05;100806.38;;;1.35;64.11
76132;BME280;64877;50.994;13.650;2023-04-03T03:13:31;100809.97;;;1.32;64.07
76132;BME280;64877;50.994;13.650;2023-04-03T03:15:57;100809.16;;;1.28;64.34
76132;BME280;64877;50.994;13.650;2023-04-03T03:18:22;100817.31;;;1.19;64.53
76132;BME280;64877;50.994;13.650;2023-04-03T03:20:52;100812.97;;;1.17;64.41
76132;BME280;64877;50.994;13.650;2023-04-03T03:23:18;100822.00;;;1.08;64.84
76132;BME280;64877;50.994;13.650;2023-04-03T03:25:43;100822.84;;;1.10;64.41
76132;BME280;64877;50.994;13.650;2023-04-03T03:28:09;100822.00;;;1.10;64.71
76132;BME280;64877;50.994;13.650;2023-04-03T03:30:35;100829.19;;;1.03;64.84
76132;BME280;64877;50.994;13.650;2023-04-03T03:33:01;100825.59;;;1.06;65.61
76132;BME280;64877;50.994;13.650;2023-04-03T03:35:26;100818.63;;;0.98;65.55
76132;BME280;64877;50.994;13.650;2023-04-03T03:37:52;100827.66;;;0.91;65.97
76132;BME280;64877;50.994;13.650;2023-04-03T03:40:17;100827.66;;;0.91;66.24
76132;BME280;64877;50.994;13.650;2023-04-03T03:42:43;100824.84;;;0.99;66.07
76132;BME280;64877;50.994;13.650;2023-04-03T03:45:09;100829.44;;;0.91;67.20
76132;BME280;64877;50.994;13.650;2023-04-03T03:47:34;100830.34;;;0.90;66.20
76132;BME280;64877;50.994;13.650;2023-04-03T03:50:00;100832.22;;;0.85;67.02
76132;BME280;64877;50.994;13.650;2023-04-03T03:52:26;100831.19;;;0.92;67.53
76132;BME280;64877;50.994;13.650;2023-04-03T03:54:51;100832.28;;;0.82;67.29
76132;BME280;64877;50.994;13.650;2023-04-03T03:57:17;100833.97;;;0.86;67.21
76132;BME280;64877;50.994;13.650;2023-04-03T03:59:43;100840.28;;;0.80;67.67
76132;BME280;64877;50.994;13.650;2023-04-03T04:02:10;100836.63;;;0.86;67.22
76132;BME280;64877;50.994;13.650;2023-04-03T04:04:36;100834.84;;;0.86;66.58
76132;BME280;64877;50.994;13.650;2023-04-03T04:07:02;100833.28;;;0.74;67.59
76132;BME280;64877;50.994;13.650;2023-04-03T04:09:27;100829.66;;;0.80;67.14
76132;BME280;64877;50.994;13.650;2023-04-03T04:11:53;100834.09;;;0.78;67.31
76132;BME280;64877;50.994;13.650;2023-04-03T04:14:18;100844.19;;;0.59;67.92
76132;BME280;64877;50.994;13.650;2023-04-03T04:16:46;100838.00;;;0.59;68.22
76132;BME280;64877;50.994;13.650;2023-04-03T04:19:11;100839.03;;;0.51;68.70
76132;BME280;64877;50.994;13.650;2023-04-03T04:21:37;100852.34;;;0.50;68.57
76132;BME280;64877;50.994;13.650;2023-04-03T04:24:02;100859.41;;;0.51;69.81
76132;BME280;64877;50.994;13.650;2023-04-03T04:26:27;100860.22;;;0.55;69.83
76132;BME280;64877;50.994;13.650;2023-04-03T04:28:53;100861.00;;;0.61;69.82
76132;BME280;64877;50.994;13.650;2023-04-03T04:31:18;100862.81;;;0.58;69.55
76132;BME280;64877;50.994;13.650;2023-04-03T04:33:44;100867.38;;;0.51;69.70
76132;BME280;64877;50.994;13.650;2023-04-03T04:36:09;100867.22;;;0.59;69.72
76132;BME280;64877;50.994;13.650;2023-04-03T04:38:35;100876.19;;;0.53;69.23
76132;BME280;64877;50.994;13.650;2023-04-03T04:41:00;100874.28;;;0.60;69.39
76132;BME280;64877;50.994;13.650;2023-04-03T04:43:26;100877.25;;;0.43;70.04
76132;BME280;64877;50.994;13.650;2023-04-03T04:46:04;100876.31;;;0.47;69.83
76132;BME280;64877;50.994;13.650;2023-04-03T04:48:30;100883.31;;;0.49;69.63
76132;BME280;64877;50.994;13.650;2023-04-03T04:50:56;100884.13;;;0.56;69.16
76132;BME280;64877;50.994;13.650;2023-04-03T04:53:21;100883.47;;;0.42;70.23
76132;BME280;64877;50.994;13.650;2023-04-03T04:55:47;100894.03;;;0.46;70.38
76132;BME280;64877;50.994;13.650;2023-04-03T04:58:13;100887.00;;;0.42;70.59
76132;BME280;64877;50.994;13.650;2023-04-03T05:00:38;100893.09;;;0.49;69.55
76132;BME280;64877;50.994;13.650;2023-04-03T05:03:03;100890.53;;;0.43;70.43
76132;BME280;64877;50.994;13.650;2023-04-03T05:05:29;100889.66;;;0.42;69.98
76132;BME280;64877;50.994;13.650;2023-04-03T05:07:54;100897.63;;;0.42;70.77
76132;BME280;64877;50.994;13.650;2023-04-03T05:10:20;100905.59;;;0.42;70.10
76132;BME280;64877;50.994;13.650;2023-04-03T05:12:45;100902.91;;;0.45;69.82
76132;BME280;64877;50.994;13.650;2023-04-03T05:15:11;100906.56;;;0.37;70.46
76132;BME280;64877;50.994;13.650;2023-04-03T05:17:36;100904.75;;;0.40;70.94
76132;BME280;64877;50.994;13.650;2023-04-03T05:20:03;100909.03;;;0.50;70.08
76132;BME280;64877;50.994;13.650;2023-04-03T05:22:29;100908.28;;;0.39;70.52
76132;BME280;64877;50.994;13.650;2023-04-03T05:24:55;100909.03;;;0.49;70.56
76132;BME280;64877;50.994;13.650;2023-04-03T05:27:20;100914.31;;;0.52;69.53
76132;BME280;64877;50.994;13.650;2023-04-03T05:29:46;100906.50;;;0.40;70.39
76132;BME280;64877;50.994;13.650;2023-04-03T05:32:11;100906.44;;;0.46;70.13
76132;BME280;64877;50.994;13.650;2023-04-03T05:34:37;100909.03;;;0.49;70.63
76132;BME280;64877;50.994;13.650;2023-04-03T05:37:02;100908.28;;;0.41;70.27
76132;BME280;64877;50.994;13.650;2023-04-03T05:39:30;100913.47;;;0.50;71.32
76132;BME280;64877;50.994;13.650;2023-04-03T05:41:56;100909.41;;;0.80;71.58
76132;BME280;64877;50.994;13.650;2023-04-03T05:44:22;100916.59;;;0.75;69.11
76132;BME280;64877;50.994;13.650;2023-04-03T05:46:47;100912.44;;;0.57;70.04
76132;BME280;64877;50.994;13.650;2023-04-03T05:49:12;100927.41;;;0.63;69.73
76132;BME280;64877;50.994;13.650;2023-04-03T05:51:39;100915.06;;;0.59;70.72
76132;BME280;64877;50.994;13.650;2023-04-03T05:54:25;100921.97;;;0.69;70.37
76132;BME280;64877;50.994;13.650;2023-04-03T05:56:51;100919.38;;;0.67;69.72
76132;BME280;64877;50.994;13.650;2023-04-03T05:59:17;100921.97;;;0.69;69.43
76132;BME280;64877;50.994;13.650;2023-04-03T06:01:43;100922.97;;;0.65;69.24
76132;BME280;64877;50.994;13.650;2023-04-03T06:04:08;100920.53;;;0.51;70.19
76132;BME280;64877;50.994;13.650;2023-04-03T06:06:50;100922.16;;;0.58;69.48
76132;BME280;64877;50.994;13.650;2023-04-03T06:09:24;100927.47;;;0.58;69.87
76132;BME280;64877;50.994;13.650;2023-04-03T06:11:50;100924.00;;;0.55;69.52
76132;BME280;64877;50.994;13.650;2023-04-03T06:14:17;100931.00;;;0.60;69.59
76132;BME280;64877;50.994;13.650;2023-04-03T06:16:42;100931.16;;;0.51;70.01
76132;BME280;64877;50.994;13.650;2023-04-03T06:19:09;100926.75;;;0.50;70.13
76132;BME280;64877;50.994;13.650;2023-04-03T06:21:35;100925.84;;;0.51;70.36
76132;BME280;64877;50.994;13.650;2023-04-03T06:24:01;100927.56;;;0.54;69.78
76132;BME280;64877;50.994;13.650;2023-04-03T06:26:27;100931.09;;;0.54;70.46
76132;BME280;64877;50.994;13.650;2023-04-03T06:28:53;100932.88;;;0.54;70.20
76132;BME280;64877;50.994;13.650;2023-04-03T06:31:19;100935.28;;;0.70;70.21
76132;BME280;64877;50.994;13.650;2023-04-03T06:33:45;100934.47;;;0.64;69.70
76132;BME280;64877;50.994;13.650;2023-04-03T06:36:11;100935.19;;;0.75;68.94
76132;BME280;64877;50.994;13.650;2023-04-03T06:38:37;100940.66;;;0.66;69.25
76132;BME280;64877;50.994;13.650;2023-04-03T06:41:03;100943.31;;;0.66;69.91
76132;BME280;64877;50.994;13.650;2023-04-03T06:43:29;100946.03;;;0.61;69.88
76132;BME280;64877;50.994;13.650;2023-04-03T06:45:56;100944.22;;;0.63;69.57
76132;BME280;64877;50.994;13.650;2023-04-03T06:48:22;100947.00;;;0.57;70.53
76132;BME280;64877;50.994;13.650;2023-04-03T06:50:47;100953.06;;;0.65;69.11
76132;BME280;64877;50.994;13.650;2023-04-03T06:53:12;100949.63;;;0.60;70.21
76132;BME280;64877;50.994;13.650;2023-04-03T06:55:38;100952.13;;;0.68;69.73
76132;BME280;64877;50.994;13.650;2023-04-03T06:58:04;100947.84;;;0.61;70.00
76132;BME280;64877;50.994;13.650;2023-04-03T07:00:30;100958.47;;;0.59;70.49
76132;BME280;64877;50.994;13.650;2023-04-03T07:02:56;100960.03;;;0.72;69.61
76132;BME280;64877;50.994;13.650;2023-04-03T07:05:23;100954.81;;;0.66;68.96
76132;BME280;64877;50.994;13.650;2023-04-03T07:07:48;100960.88;;;0.74;69.63
76132;BME280;64877;50.994;13.650;2023-04-03T07:10:15;100960.06;;;0.69;69.74
76132;BME280;64877;50.994;13.650;2023-04-03T07:12:40;100958.28;;;0.71;69.81
76132;BME280;64877;50.994;13.650;2023-04-03T07:15:06;100973.16;;;0.85;69.83
76132;BME280;64877;50.994;13.650;2023-04-03T07:17:33;100968.66;;;0.87;69.49
76132;BME280;64877;50.994;13.650;2023-04-03T07:19:58;100960.63;;;0.91;69.19
76132;BME280;64877;50.994;13.650;2023-04-03T07:22:24;100971.13;;;0.97;68.53
76132;BME280;64877;50.994;13.650;2023-04-03T07:24:49;100976.34;;;1.05;68.50
76132;BME280;64877;50.994;13.650;2023-04-03T07:27:15;100975.63;;;0.94;68.66
76132;BME280;64877;50.994;13.650;2023-04-03T07:29:41;100979.13;;;0.97;68.68
76132;BME280;64877;50.994;13.650;2023-04-03T07:32:06;100984.22;;;1.11;68.59
76132;BME280;64877;50.994;13.650;2023-04-03T07:34:32;100986.44;;;1.36;69.78
76132;BME280;64877;50.994;13.650;2023-04-03T07:36:58;100979.16;;;1.44;69.43
76132;BME280;64877;50.994;13.650;2023-04-03T07:39:24;100987.50;;;1.24;68.79
76132;BME280;64877;50.994;13.650;2023-04-03T07:41:50;100992.97;;;1.16;67.73
76132;BME280;64877;50.994;13.650;2023-04-03T07:44:16;100985.91;;;1.15;67.60
76132;BME280;64877;50.994;13.650;2023-04-03T07:46:42;100993.19;;;1.04;67.69
76132;BME280;64877;50.994;13.650;2023-04-03T07:49:08;100999.31;;;1.08;67.74
76132;BME280;64877;50.994;13.650;2023-04-03T07:51:33;100995.69;;;1.13;67.82
76132;BME280;64877;50.994;13.650;2023-04-03T07:53:59;100995.59;;;1.18;67.73
76132;BME280;64877;50.994;13.650;2023-04-03T07:56:25;100996.56;;;1.15;67.99
76132;BME280;64877;50.994;13.650;2023-04-03T07:58:50;100998.31;;;1.16;67.75
76132;BME280;64877;50.994;13.650;2023-04-03T08:01:16;101006.47;;;1.06;67.47
76132;BME280;64877;50.994;13.650;2023-04-03T08:03:41;101001.59;;;1.31;68.54
76132;BME280;64877;50.994;13.650;2023-04-03T08:06:08;101004.25;;;1.31;67.09
76132;BME280;64877;50.994;13.650;2023-04-03T08:08:33;101000.81;;;1.24;67.67
76132;BME280;64877;50.994;13.650;2023-04-03T08:11:02;101003.47;;;1.25;67.65
76132;BME280;64877;50.994;13.650;2023-04-03T08:13:28;101002.59;;;1.25;67.57
76132;BME280;64877;50.994;13.650;2023-04-03T08:15:54;101000.81;;;1.25;69.23
76132;BME280;64877;50.994;13.650;2023-04-03T08:18:22;101008.44;;;1.44;68.00
76132;BME280;64877;50.994;13.650;2023-04-03T08:20:50;101009.22;;;1.49;67.67
76132;BME280;64877;50.994;13.650;2023-04-03T08:23:17;101000.28;;;1.54;67.99
76132;BME280;64877;50.994;13.650;2023-04-03T08:25:43;101001.03;;;1.61;67.25
76132;BME280;64877;50.994;13.650;2023-04-03T08:28:11;100992.88;;;1.70;66.44
76132;BME280;64877;50.994;13.650;2023-04-03T08:30:41;100995.53;;;1.70;66.78
76132;BME280;64877;50.994;13.650;2023-04-03T08:33:08;101002.56;;;1.74;66.74
76132;BME280;64877;50.994;13.650;2023-04-03T08:35:38;101009.75;;;1.69;68.21
76132;BME280;64877;50.994;13.650;2023-04-03T08:38:03;101002.78;;;1.62;67.32
76132;BME280;64877;50.994;13.650;2023-04-03T08:40:29;101009.75;;;1.69;65.76
76132;BME280;64877;50.994;13.650;2023-04-03T08:45:50;101003.44;;;1.73;65.62
76132;BME280;64877;50.994;13.650;2023-04-03T08:48:24;101009.75;;;1.69;65.88
76132;BME280;64877;50.994;13.650;2023-04-03T08:50:53;101005.25;;;1.71;65.89
76132;BME280;64877;50.994;13.650;2023-04-03T08:53:27;101011.41;;;1.75;66.88
76132;BME280;64877;50.994;13.650;2023-04-03T08:55:56;101018.53;;;1.74;67.68
76132;BME280;64877;50.994;13.650;2023-04-03T08:58:28;101014.88;;;1.78;65.07
76132;BME280;64877;50.994;13.650;2023-04-03T09:01:00;101012.81;;;1.94;69.20
76132;BME280;64877;50.994;13.650;2023-04-03T09:03:30;101006.44;;;2.01;65.75
76132;BME280;64877;50.994;13.650;2023-04-03T09:08:31;101011.72;;;2.04;64.77
76132;BME280;64877;50.994;13.650;2023-04-03T09:13:54;101012.25;;;2.20;64.36
76132;BME280;64877;50.994;13.650;2023-04-03T09:21:37;101016.31;;;1.96;66.89
76132;BME280;64877;50.994;13.650;2023-04-03T09:24:05;101019.78;;;1.98;69.08
76132;BME280;64877;50.994;13.650;2023-04-03T09:26:58;101022.13;;;2.15;65.12
76132;BME280;64877;50.994;13.650;2023-04-03T09:29:25;101013.13;;;2.21;67.01
76132;BME280;64877;50.994;13.650;2023-04-03T09:32:02;101010.97;;;2.38;67.37
76132;BME280;64877;50.994;13.650;2023-04-03T09:34:38;101011.41;;;2.57;65.07
76132;BME280;64877;50.994;13.650;2023-04-03T09:37:06;101007.63;;;2.67;65.84
76132;BME280;64877;50.994;13.650;2023-04-03T09:39:49;101000.44;;;3.06;65.02
76132;BME280;64877;50.994;13.650;2023-04-03T09:44:53;100997.09;;;3.34;65.15
76132;BME280;64877;50.994;13.650;2023-04-03T09:47:30;100994.50;;;3.31;65.50
76132;BME280;64877;50.994;13.650;2023-04-03T09:52:39;101000.88;;;3.25;60.85
76132;BME280;64877;50.994;13.650;2023-04-03T09:55:07;100995.66;;;3.21;59.34
76132;BME280;64877;50.994;13.650;2023-04-03T09:57:33;100999.41;;;3.12;64.22
76132;BME280;64877;50.994;13.650;2023-04-03T10:00:00;100995.69;;;3.19;62.58
76132;BME280;64877;50.994;13.650;2023-04-03T10:02:37;100991.50;;;3.09;61.11
76132;BME280;64877;50.994;13.650;2023-04-03T10:05:28;100986.06;;;3.14;60.23
76132;BME280;64877;50.994;13.650;2023-04-03T10:10:38;100977.00;;;3.19;61.88
76132;BME280;64877;50.994;13.650;2023-04-03T10:13:06;100973.81;;;3.39;64.23
76132;BME280;64877;50.994;13.650;2023-04-03T10:15:41;100964.59;;;3.82;60.61
76132;BME280;64877;50.994;13.650;2023-04-03T10:21:10;100962.97;;;3.76;64.62
76132;BME280;64877;50.994;13.650;2023-04-03T10:23:51;100960.56;;;3.67;59.65
76132;BME280;64877;50.994;13.650;2023-04-03T10:29:24;100964.75;;;3.45;59.71
76132;BME280;64877;50.994;13.650;2023-04-03T10:32:25;100960.47;;;3.37;55.41
76132;BME280;64877;50.994;13.650;2023-04-03T10:35:02;100958.97;;;3.29;64.03
76132;BME280;64877;50.994;13.650;2023-04-03T10:38:01;100961.22;;;3.43;56.74
76132;BME280;64877;50.994;13.650;2023-04-03T10:43:18;100951.84;;;3.60;56.34
76132;BME280;64877;50.994;13.650;2023-04-03T10:45:51;100942.00;;;3.62;54.74
76132;BME280;64877;50.994;13.650;2023-04-03T10:48:42;100944.38;;;3.73;55.30
76132;BME280;64877;50.994;13.650;2023-04-03T10:54:16;100944.38;;;3.73;57.78
76132;BME280;64877;50.994;13.650;2023-04-03T10:56:53;100946.00;;;3.77;55.92
76132;BME280;64877;50.994;13.650;2023-04-03T11:02:14;100931.66;;;3.81;52.95
76132;BME280;64877;50.994;13.650;2023-04-03T11:04:45;100935.19;;;3.83;52.38
76132;BME280;64877;50.994;13.650;2023-04-03T11:07:19;100928.91;;;3.84;52.28
76132;BME280;64877;50.994;13.650;2023-04-03T11:09:52;100923.91;;;4.02;50.34
76132;BME280;64877;50.994;13.650;2023-04-03T11:12:41;100927.91;;;3.87;51.41
76132;BME280;64877;50.994;13.650;2023-04-03T11:15:13;100924.50;;;3.83;51.51
76132;BME280;64877;50.994;13.650;2023-04-03T11:17:45;100915.63;;;3.81;52.53
76132;BME280;64877;50.994;13.650;2023-04-03T11:23:06;100918.09;;;3.89;50.72
76132;BME280;64877;50.994;13.650;2023-04-03T11:25:41;100917.22;;;3.88;49.40
76132;BME280;64877;50.994;13.650;2023-04-03T11:28:12;100909.81;;;3.97;49.54
76132;BME280;64877;50.994;13.650;2023-04-03T11:30:55;100917.94;;;3.94;49.55
76132;BME280;64877;50.994;13.650;2023-04-03T11:36:06;100912.13;;;3.79;48.18
76132;BME280;64877;50.994;13.650;2023-04-03T11:38:36;100904.75;;;3.87;48.56
76132;BME280;64877;50.994;13.650;2023-04-03T11:41:07;100903.06;;;3.85;49.73
76132;BME280;64877;50.994;13.650;2023-04-03T11:43:34;100906.59;;;3.85;51.56
76132;BME280;64877;50.994;13.650;2023-04-03T11:46:06;100906.13;;;4.01;52.00
76132;BME280;64877;50.994;13.650;2023-04-03T11:56:58;100897.28;;;4.28;50.14
76132;BME280;64877;50.994;13.650;2023-04-03T11:59:24;100904.22;;;4.34;52.98
76132;BME280;64877;50.994;13.650;2023-04-03T12:01:52;100901.50;;;4.35;48.40
76132;BME280;64877;50.994;13.650;2023-04-03T12:04:20;100902.72;;;4.25;48.45
76132;BME280;64877;50.994;13.650;2023-04-03T12:11:55;100899.59;;;4.11;53.62
76132;BME280;64877;50.994;13.650;2023-04-03T12:14:25;100898.50;;;4.18;47.45
76132;BME280;64877;50.994;13.650;2023-04-03T12:16:52;100893.44;;;4.09;48.80
76132;BME280;64877;50.994;13.650;2023-04-03T12:19:34;100893.31;;;4.12;49.19
76132;BME280;64877;50.994;13.650;2023-04-03T12:24:32;100897.63;;;4.16;47.82
76132;BME280;64877;50.994;13.650;2023-04-03T12:30:05;100900.72;;;4.04;48.20
76132;BME280;64877;50.994;13.650;2023-04-03T12:35:27;100895.38;;;4.04;47.96
76132;BME280;64877;50.994;13.650;2023-04-03T12:46:33;100879.56;;;4.24;47.78
76132;BME280;64877;50.994;13.650;2023-04-03T12:49:01;100878.72;;;4.22;48.05
76132;BME280;64877;50.994;13.650;2023-04-03T12:51:41;100891.94;;;4.27;50.41
76132;BME280;64877;50.994;13.650;2023-04-03T12:54:19;100883.63;;;4.36;49.91
76132;BME280;64877;50.994;13.650;2023-04-03T12:56:47;100885.50;;;4.34;48.07
76132;BME280;64877;50.994;13.650;2023-04-03T12:59:24;100889.13;;;4.31;47.98
76132;BME280;64877;50.994;13.650;2023-04-03T13:01:57;100885.34;;;4.38;48.15
76132;BME280;64877;50.994;13.650;2023-04-03T13:04:24;100891.06;;;4.26;47.53
76132;BME280;64877;50.994;13.650;2023-04-03T13:06:50;100881.31;;;4.25;48.36
76132;BME280;64877;50.994;13.650;2023-04-03T13:09:24;100890.22;;;4.26;47.97
76132;BME280;64877;50.994;13.650;2023-04-03T13:11:59;100885.84;;;4.23;49.32
76132;BME280;64877;50.994;13.650;2023-04-03T13:14:27;100895.41;;;4.30;48.75
76132;BME280;64877;50.994;13.650;2023-04-03T13:16:56;100893.28;;;4.13;49.42
76132;BME280;64877;50.994;13.650;2023-04-03T13:19:24;100886.88;;;4.19;48.26
76132;BME280;64877;50.994;13.650;2023-04-03T13:22:01;100889.53;;;4.19;48.95
76132;BME280;64877;50.994;13.650;2023-04-03T13:24:29;100893.22;;;4.15;48.90
76132;BME280;64877;50.994;13.650;2023-04-03T13:26:56;100885.13;;;4.18;48.96
76132;BME280;64877;50.994;13.650;2023-04-03T13:29:28;100884.28;;;4.16;49.00
76132;BME280;64877;50.994;13.650;2023-04-03T13:31:56;100884.19;;;4.19;49.44
76132;BME280;64877;50.994;13.650;2023-04-03T13:34:23;100884.28;;;4.16;50.17
76132;BME280;64877;50.994;13.650;2023-04-03T13:41:44;100876.25;;;4.16;46.53
76132;BME280;64877;50.994;13.650;2023-04-03T13:44:25;100872.47;;;4.23;47.11
76132;BME280;64877;50.994;13.650;2023-04-03T13:46:52;100868.16;;;4.19;47.91
76132;BME280;64877;50.994;13.650;2023-04-03T13:55:03;100871.34;;;4.30;48.20
76132;BME280;64877;50.994;13.650;2023-04-03T13:57:36;100868.75;;;4.27;48.30
76132;BME280;64877;50.994;13.650;2023-04-03T14:01:06;100862.50;;;4.28;46.80
76132;BME280;64877;50.994;13.650;2023-04-03T14:03:29;100863.03;;;4.39;47.69
76132;BME280;64877;50.994;13.650;2023-04-03T14:05:55;100864.06;;;4.35;46.79
76132;BME280;64877;50.994;13.650;2023-04-03T14:08:21;100857.03;;;4.31;47.50
76132;BME280;64877;50.994;13.650;2023-04-03T14:10:48;100857.75;;;4.38;48.36
76132;BME280;64877;50.994;13.650;2023-04-03T14:13:16;100869.47;;;4.32;48.70
76132;BME280;64877;50.994;13.650;2023-04-03T14:15:43;100864.75;;;4.14;48.15
76132;BME280;64877;50.994;13.650;2023-04-03T14:18:12;100862.88;;;4.16;49.20
76132;BME280;64877;50.994;13.650;2023-04-03T14:20:38;100869.81;;;4.23;48.02
76132;BME280;64877;50.994;13.650;2023-04-03T14:23:04;100866.56;;;4.12;46.95
76132;BME280;64877;50.994;13.650;2023-04-03T14:25:29;100865.75;;;4.10;46.74
76132;BME280;64877;50.994;13.650;2023-04-03T14:27:55;100867.72;;;4.05;47.28
76132;BME280;64877;50.994;13.650;2023-04-03T14:30:25;100866.78;;;4.06;48.67
76132;BME280;64877;50.994;13.650;2023-04-03T14:32:51;100872.91;;;4.09;48.66